This is the latest recevied weather packets stored in our database for station/object XE1E-15. If no packets are shown the sender has not sent any weather packets the latest 1 day(s).
| Time | Temp. | Humidity | Pressure | Rain* | Wind** | Luminosity | Snow |
|---|---|---|---|---|---|---|---|
| 1777854277 | 25.56° C | 56% | 1022.6 hPa | - | - | - | - |
| 1777853317 | 25.56° C | 56% | 1022.3 hPa | - | - | - | - |
| 1777852357 | 25° C | 56% | 1022.1 hPa | - | - | - | - |
| 1777851397 | 25° C | 55% | 1022.6 hPa | - | - | - | - |
| 1777850437 | 25° C | 57% | 1022.7 hPa | - | - | - | - |
| 1777849477 | 24.44° C | 58% | 1022.7 hPa | - | - | - | - |
| 1777848516 | 25° C | 51% | 1022.8 hPa | - | - | - | - |
| 1777847556 | 25° C | 49% | 1023.1 hPa | - | - | - | - |
| 1777846596 | 27.22° C | 41% | 1022.4 hPa | - | - | - | - |
| 1777845636 | 27.22° C | 39% | 1022.1 hPa | - | - | - | - |
| 1777844676 | 28.33° C | 36% | 1022.1 hPa | - | - | - | - |
| 1777843973 | 29.44° C | 35% | 1021.9 hPa | - | - | - | - |
| 1777843910 | 29.44° C | 35% | 1021.9 hPa | - | - | - | - |
| 1777843722 | 29.44° C | 35% | 1021.9 hPa | - | - | - | - |
| 1777842755 | 31.11° C | 35% | 1022.3 hPa | - | - | - | - |
| 1777841363 | 30.56° C | 35% | 1022.7 hPa | - | - | - | - |
| 1777841327 | 30.56° C | 35% | 1022.7 hPa | - | - | - | - |
| 1777840367 | 29.44° C | 36% | 1023.1 hPa | - | - | - | - |
| 1777839406 | 30° C | 36% | 1023.1 hPa | - | - | - | - |
| 1777838446 | 31.67° C | 32% | 1023.2 hPa | - | - | - | - |
| 1777837486 | 31.67° C | 31% | 1023.4 hPa | - | - | - | - |
| 1777836526 | 31.67° C | 32% | 1023.7 hPa | - | - | - | - |
| 1777835566 | 31.11° C | 32% | 1024.1 hPa | - | - | - | - |
* Rain since midnight (hover to see other rain measurements)
** Current wind speed in m/s (hover to see current wind gust speed)